sensor_id;sensor_type;location;lat;lon;timestamp;temperature;humidity
35692;DHT22;26978;44.830;-0.674;2022-09-02T00:01:26;19.50;99.90
35692;DHT22;26978;44.830;-0.674;2022-09-02T00:03:57;19.50;99.90
35692;DHT22;26978;44.830;-0.674;2022-09-02T00:06:23;19.50;99.90
35692;DHT22;26978;44.830;-0.674;2022-09-02T00:08:49;19.40;99.90
35692;DHT22;26978;44.830;-0.674;2022-09-02T00:11:16;19.40;99.90
35692;DHT22;26978;44.830;-0.674;2022-09-02T00:13:41;19.40;99.90
35692;DHT22;26978;44.830;-0.674;2022-09-02T00:16:07;19.40;99.90
35692;DHT22;26978;44.830;-0.674;2022-09-02T00:18:35;19.30;99.90
35692;DHT22;26978;44.830;-0.674;2022-09-02T00:21:00;19.40;99.90
35692;DHT22;26978;44.830;-0.674;2022-09-02T00:23:26;19.40;99.90
35692;DHT22;26978;44.830;-0.674;2022-09-02T00:25:51;19.40;99.90
35692;DHT22;26978;44.830;-0.674;2022-09-02T00:28:17;19.40;99.90
35692;DHT22;26978;44.830;-0.674;2022-09-02T00:30:43;19.40;99.90
35692;DHT22;26978;44.830;-0.674;2022-09-02T00:33:09;19.40;99.90
35692;DHT22;26978;44.830;-0.674;2022-09-02T00:35:35;19.50;99.90
35692;DHT22;26978;44.830;-0.674;2022-09-02T00:38:00;19.40;99.90
35692;DHT22;26978;44.830;-0.674;2022-09-02T00:40:26;19.40;99.90
35692;DHT22;26978;44.830;-0.674;2022-09-02T00:42:52;19.40;99.90
35692;DHT22;26978;44.830;-0.674;2022-09-02T00:45:18;19.40;99.90
35692;DHT22;26978;44.830;-0.674;2022-09-02T00:47:44;19.40;99.90
35692;DHT22;26978;44.830;-0.674;2022-09-02T00:50:11;19.40;99.90
35692;DHT22;26978;44.830;-0.674;2022-09-02T00:52:47;19.50;99.90
35692;DHT22;26978;44.830;-0.674;2022-09-02T00:55:14;19.40;99.90
35692;DHT22;26978;44.830;-0.674;2022-09-02T00:57:42;19.50;99.90
35692;DHT22;26978;44.830;-0.674;2022-09-02T01:02:35;19.50;99.90
35692;DHT22;26978;44.830;-0.674;2022-09-02T01:05:02;19.50;99.90
35692;DHT22;26978;44.830;-0.674;2022-09-02T01:07:29;19.50;99.90
35692;DHT22;26978;44.830;-0.674;2022-09-02T01:09:54;19.50;99.90
35692;DHT22;26978;44.830;-0.674;2022-09-02T01:12:21;19.50;99.90
35692;DHT22;26978;44.830;-0.674;2022-09-02T01:14:46;19.40;99.90
35692;DHT22;26978;44.830;-0.674;2022-09-02T01:17:12;19.40;99.90
35692;DHT22;26978;44.830;-0.674;2022-09-02T01:19:41;19.40;99.90
35692;DHT22;26978;44.830;-0.674;2022-09-02T01:22:17;19.30;99.90
35692;DHT22;26978;44.830;-0.674;2022-09-02T01:24:43;19.30;99.90
35692;DHT22;26978;44.830;-0.674;2022-09-02T01:27:09;19.30;99.90
35692;DHT22;26978;44.830;-0.674;2022-09-02T01:29:38;19.30;99.90
35692;DHT22;26978;44.830;-0.674;2022-09-02T01:32:04;19.20;99.90
35692;DHT22;26978;44.830;-0.674;2022-09-02T01:34:29;19.20;99.90
35692;DHT22;26978;44.830;-0.674;2022-09-02T01:36:55;19.20;99.90
35692;DHT22;26978;44.830;-0.674;2022-09-02T01:39:20;19.10;99.90
35692;DHT22;26978;44.830;-0.674;2022-09-02T01:41:46;19.10;99.90
35692;DHT22;26978;44.830;-0.674;2022-09-02T01:44:11;19.00;99.90
35692;DHT22;26978;44.830;-0.674;2022-09-02T01:46:40;19.00;99.90
35692;DHT22;26978;44.830;-0.674;2022-09-02T01:49:05;19.00;99.90
35692;DHT22;26978;44.830;-0.674;2022-09-02T01:51:31;18.90;99.90
35692;DHT22;26978;44.830;-0.674;2022-09-02T01:53:57;18.90;99.90
35692;DHT22;26978;44.830;-0.674;2022-09-02T01:56:22;18.90;99.90
35692;DHT22;26978;44.830;-0.674;2022-09-02T01:58:48;18.90;99.90
35692;DHT22;26978;44.830;-0.674;2022-09-02T02:01:13;18.90;99.90
35692;DHT22;26978;44.830;-0.674;2022-09-02T02:03:39;19.00;99.90
35692;DHT22;26978;44.830;-0.674;2022-09-02T02:06:10;19.00;99.90
35692;DHT22;26978;44.830;-0.674;2022-09-02T02:08:36;19.00;99.90
35692;DHT22;26978;44.830;-0.674;2022-09-02T02:11:01;19.10;99.90
35692;DHT22;26978;44.830;-0.674;2022-09-02T02:13:27;19.10;99.90
35692;DHT22;26978;44.830;-0.674;2022-09-02T02:15:52;19.10;99.90
35692;DHT22;26978;44.830;-0.674;2022-09-02T02:18:18;19.20;99.90
35692;DHT22;26978;44.830;-0.674;2022-09-02T02:20:44;19.20;99.90
35692;DHT22;26978;44.830;-0.674;2022-09-02T02:23:09;19.20;99.90
35692;DHT22;26978;44.830;-0.674;2022-09-02T02:25:35;19.20;99.90
35692;DHT22;26978;44.830;-0.674;2022-09-02T02:28:00;19.20;99.90
35692;DHT22;26978;44.830;-0.674;2022-09-02T02:30:26;19.20;99.90
35692;DHT22;26978;44.830;-0.674;2022-09-02T02:32:52;19.20;99.90
35692;DHT22;26978;44.830;-0.674;2022-09-02T02:35:17;19.20;99.90
35692;DHT22;26978;44.830;-0.674;2022-09-02T02:37:43;19.20;99.90
35692;DHT22;26978;44.830;-0.674;2022-09-02T02:40:10;19.10;99.90
35692;DHT22;26978;44.830;-0.674;2022-09-02T02:42:36;19.10;99.90
35692;DHT22;26978;44.830;-0.674;2022-09-02T02:45:02;19.10;99.90
35692;DHT22;26978;44.830;-0.674;2022-09-02T02:47:28;19.10;99.90
35692;DHT22;26978;44.830;-0.674;2022-09-02T02:49:53;19.10;99.90
35692;DHT22;26978;44.830;-0.674;2022-09-02T02:52:19;19.10;99.90
35692;DHT22;26978;44.830;-0.674;2022-09-02T02:54:45;19.10;99.90
35692;DHT22;26978;44.830;-0.674;2022-09-02T02:57:11;19.10;99.90
35692;DHT22;26978;44.830;-0.674;2022-09-02T02:59:37;19.10;99.90
35692;DHT22;26978;44.830;-0.674;2022-09-02T03:02:04;19.10;99.90
35692;DHT22;26978;44.830;-0.674;2022-09-02T03:04:29;19.10;99.90
35692;DHT22;26978;44.830;-0.674;2022-09-02T03:06:55;19.10;99.90
35692;DHT22;26978;44.830;-0.674;2022-09-02T03:09:20;19.10;99.90
35692;DHT22;26978;44.830;-0.674;2022-09-02T03:11:47;19.10;99.90
35692;DHT22;26978;44.830;-0.674;2022-09-02T03:14:13;19.10;99.90
35692;DHT22;26978;44.830;-0.674;2022-09-02T03:16:38;19.10;99.90
35692;DHT22;26978;44.830;-0.674;2022-09-02T03:19:05;19.10;99.90
35692;DHT22;26978;44.830;-0.674;2022-09-02T03:21:31;19.10;99.90
35692;DHT22;26978;44.830;-0.674;2022-09-02T03:23:56;19.00;99.90
35692;DHT22;26978;44.830;-0.674;2022-09-02T03:26:22;19.00;99.90
35692;DHT22;26978;44.830;-0.674;2022-09-02T03:28:48;19.00;99.90
35692;DHT22;26978;44.830;-0.674;2022-09-02T03:31:15;19.00;99.90
35692;DHT22;26978;44.830;-0.674;2022-09-02T03:33:41;18.90;99.90
35692;DHT22;26978;44.830;-0.674;2022-09-02T03:36:07;18.80;99.90
35692;DHT22;26978;44.830;-0.674;2022-09-02T03:38:33;18.80;99.90
35692;DHT22;26978;44.830;-0.674;2022-09-02T03:40:59;18.80;99.90
35692;DHT22;26978;44.830;-0.674;2022-09-02T03:43:24;18.80;99.90
35692;DHT22;26978;44.830;-0.674;2022-09-02T03:45:50;18.70;99.90
35692;DHT22;26978;44.830;-0.674;2022-09-02T03:48:15;18.60;99.90
35692;DHT22;26978;44.830;-0.674;2022-09-02T03:50:42;18.60;99.90
35692;DHT22;26978;44.830;-0.674;2022-09-02T03:53:08;18.50;99.90
35692;DHT22;26978;44.830;-0.674;2022-09-02T03:55:35;18.40;99.90
35692;DHT22;26978;44.830;-0.674;2022-09-02T03:58:00;18.40;99.90
35692;DHT22;26978;44.830;-0.674;2022-09-02T04:00:26;18.30;99.90
35692;DHT22;26978;44.830;-0.674;2022-09-02T04:02:56;18.30;99.90
35692;DHT22;26978;44.830;-0.674;2022-09-02T04:05:22;18.30;99.90
35692;DHT22;26978;44.830;-0.674;2022-09-02T04:07:48;18.30;99.90
35692;DHT22;26978;44.830;-0.674;2022-09-02T04:10:15;18.30;99.90
35692;DHT22;26978;44.830;-0.674;2022-09-02T04:12:41;18.20;99.90
35692;DHT22;26978;44.830;-0.674;2022-09-02T04:15:07;18.20;99.90
35692;DHT22;26978;44.830;-0.674;2022-09-02T04:17:37;18.20;99.90
35692;DHT22;26978;44.830;-0.674;2022-09-02T04:20:03;18.20;99.90
35692;DHT22;26978;44.830;-0.674;2022-09-02T04:22:29;18.20;99.90
35692;DHT22;26978;44.830;-0.674;2022-09-02T04:24:55;18.20;99.90
35692;DHT22;26978;44.830;-0.674;2022-09-02T04:27:20;18.20;99.90
35692;DHT22;26978;44.830;-0.674;2022-09-02T04:29:46;18.20;99.90
35692;DHT22;26978;44.830;-0.674;2022-09-02T04:32:12;18.30;99.90
35692;DHT22;26978;44.830;-0.674;2022-09-02T04:34:37;18.30;99.90
35692;DHT22;26978;44.830;-0.674;2022-09-02T04:37:03;18.40;99.90
35692;DHT22;26978;44.830;-0.674;2022-09-02T04:39:28;18.30;99.90
35692;DHT22;26978;44.830;-0.674;2022-09-02T04:41:54;18.40;99.90
35692;DHT22;26978;44.830;-0.674;2022-09-02T04:44:19;18.40;99.90
35692;DHT22;26978;44.830;-0.674;2022-09-02T04:46:45;18.40;99.90
35692;DHT22;26978;44.830;-0.674;2022-09-02T04:49:11;18.40;99.90
35692;DHT22;26978;44.830;-0.674;2022-09-02T04:51:36;18.40;99.90
35692;DHT22;26978;44.830;-0.674;2022-09-02T04:54:02;18.30;99.90
35692;DHT22;26978;44.830;-0.674;2022-09-02T04:56:28;18.30;99.90
35692;DHT22;26978;44.830;-0.674;2022-09-02T04:58:54;18.30;99.90
35692;DHT22;26978;44.830;-0.674;2022-09-02T05:01:21;18.30;99.90
35692;DHT22;26978;44.830;-0.674;2022-09-02T05:03:47;18.30;99.90
35692;DHT22;26978;44.830;-0.674;2022-09-02T05:06:15;18.20;99.90
35692;DHT22;26978;44.830;-0.674;2022-09-02T05:08:40;18.20;99.90
35692;DHT22;26978;44.830;-0.674;2022-09-02T05:11:15;18.20;99.90
35692;DHT22;26978;44.830;-0.674;2022-09-02T05:13:43;18.20;99.90
35692;DHT22;26978;44.830;-0.674;2022-09-02T05:16:08;18.20;99.90
35692;DHT22;26978;44.830;-0.674;2022-09-02T05:18:34;18.20;99.90
35692;DHT22;26978;44.830;-0.674;2022-09-02T05:21:03;18.20;99.90
35692;DHT22;26978;44.830;-0.674;2022-09-02T05:23:28;18.30;99.90
35692;DHT22;26978;44.830;-0.674;2022-09-02T05:25:54;18.30;99.90
35692;DHT22;26978;44.830;-0.674;2022-09-02T05:28:20;18.20;99.90
35692;DHT22;26978;44.830;-0.674;2022-09-02T05:30:45;18.20;99.90
35692;DHT22;26978;44.830;-0.674;2022-09-02T05:33:11;18.20;99.90
35692;DHT22;26978;44.830;-0.674;2022-09-02T05:35:42;18.20;99.90
35692;DHT22;26978;44.830;-0.674;2022-09-02T05:38:08;18.20;99.90
35692;DHT22;26978;44.830;-0.674;2022-09-02T05:40:35;18.20;99.90
35692;DHT22;26978;44.830;-0.674;2022-09-02T05:43:02;18.30;99.90
35692;DHT22;26978;44.830;-0.674;2022-09-02T05:45:27;18.30;99.90
35692;DHT22;26978;44.830;-0.674;2022-09-02T05:47:53;18.30;99.90
35692;DHT22;26978;44.830;-0.674;2022-09-02T05:50:18;18.30;99.90
35692;DHT22;26978;44.830;-0.674;2022-09-02T05:52:44;18.30;99.90
35692;DHT22;26978;44.830;-0.674;2022-09-02T05:55:13;18.20;99.90
35692;DHT22;26978;44.830;-0.674;2022-09-02T05:57:39;18.30;99.90
35692;DHT22;26978;44.830;-0.674;2022-09-02T06:00:05;18.30;99.90
35692;DHT22;26978;44.830;-0.674;2022-09-02T06:02:31;18.20;99.90
35692;DHT22;26978;44.830;-0.674;2022-09-02T06:04:57;18.30;99.90
35692;DHT22;26978;44.830;-0.674;2022-09-02T06:07:23;18.40;99.90
35692;DHT22;26978;44.830;-0.674;2022-09-02T06:09:48;18.40;99.90
35692;DHT22;26978;44.830;-0.674;2022-09-02T06:12:14;18.40;99.90
35692;DHT22;26978;44.830;-0.674;2022-09-02T06:14:40;18.40;99.90
35692;DHT22;26978;44.830;-0.674;2022-09-02T06:17:06;18.40;99.90
35692;DHT22;26978;44.830;-0.674;2022-09-02T06:19:32;18.40;99.90
35692;DHT22;26978;44.830;-0.674;2022-09-02T06:21:58;18.40;99.90
35692;DHT22;26978;44.830;-0.674;2022-09-02T06:24:24;18.40;99.90
35692;DHT22;26978;44.830;-0.674;2022-09-02T06:26:50;18.40;99.90
35692;DHT22;26978;44.830;-0.674;2022-09-02T06:29:17;18.50;99.90
35692;DHT22;26978;44.830;-0.674;2022-09-02T06:31:44;18.50;99.90
35692;DHT22;26978;44.830;-0.674;2022-09-02T06:34:10;18.60;99.90
35692;DHT22;26978;44.830;-0.674;2022-09-02T06:36:37;18.70;99.90
35692;DHT22;26978;44.830;-0.674;2022-09-02T06:39:04;18.80;99.90
35692;DHT22;26978;44.830;-0.674;2022-09-02T06:41:30;18.90;99.90
35692;DHT22;26978;44.830;-0.674;2022-09-02T06:43:56;18.90;99.90
35692;DHT22;26978;44.830;-0.674;2022-09-02T06:46:27;19.00;99.90
35692;DHT22;26978;44.830;-0.674;2022-09-02T06:48:53;19.10;99.90
35692;DHT22;26978;44.830;-0.674;2022-09-02T06:51:20;19.30;99.90
35692;DHT22;26978;44.830;-0.674;2022-09-02T06:53:45;19.40;99.90
35692;DHT22;26978;44.830;-0.674;2022-09-02T06:56:11;19.50;99.90
35692;DHT22;26978;44.830;-0.674;2022-09-02T06:58:36;19.60;99.90
35692;DHT22;26978;44.830;-0.674;2022-09-02T07:01:02;19.70;99.90
35692;DHT22;26978;44.830;-0.674;2022-09-02T07:03:28;19.80;99.90
35692;DHT22;26978;44.830;-0.674;2022-09-02T07:06:12;20.00;99.90
35692;DHT22;26978;44.830;-0.674;2022-09-02T07:08:38;20.20;99.90
35692;DHT22;26978;44.830;-0.674;2022-09-02T07:11:04;20.50;99.90
35692;DHT22;26978;44.830;-0.674;2022-09-02T07:13:30;20.70;99.90
35692;DHT22;26978;44.830;-0.674;2022-09-02T07:15:56;20.70;99.90
35692;DHT22;26978;44.830;-0.674;2022-09-02T07:18:22;21.00;99.90
35692;DHT22;26978;44.830;-0.674;2022-09-02T07:20:47;21.10;99.90
35692;DHT22;26978;44.830;-0.674;2022-09-02T07:23:14;21.00;99.90
35692;DHT22;26978;44.830;-0.674;2022-09-02T07:25:40;21.20;99.90
35692;DHT22;26978;44.830;-0.674;2022-09-02T07:28:06;21.20;99.90
35692;DHT22;26978;44.830;-0.674;2022-09-02T07:30:32;21.00;99.90
35692;DHT22;26978;44.830;-0.674;2022-09-02T07:32:57;21.10;99.90
35692;DHT22;26978;44.830;-0.674;2022-09-02T07:35:23;21.00;99.90
35692;DHT22;26978;44.830;-0.674;2022-09-02T07:37:49;21.00;99.90
35692;DHT22;26978;44.830;-0.674;2022-09-02T07:40:15;21.10;99.90
35692;DHT22;26978;44.830;-0.674;2022-09-02T07:42:41;21.30;99.90
35692;DHT22;26978;44.830;-0.674;2022-09-02T07:45:07;21.40;99.90
35692;DHT22;26978;44.830;-0.674;2022-09-02T07:47:33;21.40;99.90
35692;DHT22;26978;44.830;-0.674;2022-09-02T07:49:59;21.50;99.90
35692;DHT22;26978;44.830;-0.674;2022-09-02T07:52:24;21.50;99.90
35692;DHT22;26978;44.830;-0.674;2022-09-02T07:54:50;21.70;99.90
35692;DHT22;26978;44.830;-0.674;2022-09-02T07:57:15;21.80;99.90
35692;DHT22;26978;44.830;-0.674;2022-09-02T07:59:41;21.90;99.90
35692;DHT22;26978;44.830;-0.674;2022-09-02T08:02:07;21.80;99.90
35692;DHT22;26978;44.830;-0.674;2022-09-02T08:04:34;21.80;99.90
35692;DHT22;26978;44.830;-0.674;2022-09-02T08:07:00;22.00;99.90
35692;DHT22;26978;44.830;-0.674;2022-09-02T08:09:25;22.30;99.90
35692;DHT22;26978;44.830;-0.674;2022-09-02T08:11:51;22.00;99.90
35692;DHT22;26978;44.830;-0.674;2022-09-02T08:14:22;22.10;99.90
35692;DHT22;26978;44.830;-0.674;2022-09-02T08:16:50;22.00;99.90
35692;DHT22;26978;44.830;-0.674;2022-09-02T08:19:16;22.00;99.90
35692;DHT22;26978;44.830;-0.674;2022-09-02T08:21:42;22.10;99.90
35692;DHT22;26978;44.830;-0.674;2022-09-02T08:24:07;22.00;99.90
35692;DHT22;26978;44.830;-0.674;2022-09-02T08:26:34;22.10;99.90
35692;DHT22;26978;44.830;-0.674;2022-09-02T08:29:06;21.90;99.90
35692;DHT22;26978;44.830;-0.674;2022-09-02T08:31:32;22.00;99.90
35692;DHT22;26978;44.830;-0.674;2022-09-02T08:33:58;22.30;99.90
35692;DHT22;26978;44.830;-0.674;2022-09-02T08:36:25;22.40;99.90
35692;DHT22;26978;44.830;-0.674;2022-09-02T08:38:51;22.60;99.90
35692;DHT22;26978;44.830;-0.674;2022-09-02T08:41:20;22.70;99.90
35692;DHT22;26978;44.830;-0.674;2022-09-02T08:43:46;22.80;99.90
35692;DHT22;26978;44.830;-0.674;2022-09-02T08:46:13;22.90;99.90
35692;DHT22;26978;44.830;-0.674;2022-09-02T08:48:49;23.00;99.90
35692;DHT22;26978;44.830;-0.674;2022-09-02T08:51:19;23.00;99.90
35692;DHT22;26978;44.830;-0.674;2022-09-02T08:53:59;23.20;99.90
35692;DHT22;26978;44.830;-0.674;2022-09-02T08:56:26;23.70;99.90
35692;DHT22;26978;44.830;-0.674;2022-09-02T08:58:52;24.10;99.90
35692;DHT22;26978;44.830;-0.674;2022-09-02T09:06:40;24.50;99.90
35692;DHT22;26978;44.830;-0.674;2022-09-02T09:09:13;24.30;99.90
35692;DHT22;26978;44.830;-0.674;2022-09-02T09:11:54;24.30;99.90
35692;DHT22;26978;44.830;-0.674;2022-09-02T09:16:57;24.60;99.90
35692;DHT22;26978;44.830;-0.674;2022-09-02T09:21:52;24.40;99.90
35692;DHT22;26978;44.830;-0.674;2022-09-02T09:24:25;24.00;99.90
35692;DHT22;26978;44.830;-0.674;2022-09-02T09:26:52;23.60;99.90
35692;DHT22;26978;44.830;-0.674;2022-09-02T09:29:18;23.00;99.90
35692;DHT22;26978;44.830;-0.674;2022-09-02T09:31:44;22.50;99.90
35692;DHT22;26978;44.830;-0.674;2022-09-02T09:34:12;22.10;99.90
35692;DHT22;26978;44.830;-0.674;2022-09-02T09:36:42;21.80;99.90
35692;DHT22;26978;44.830;-0.674;2022-09-02T09:39:50;21.60;99.90
35692;DHT22;26978;44.830;-0.674;2022-09-02T09:42:00;21.40;99.90
35692;DHT22;26978;44.830;-0.674;2022-09-02T09:44:28;21.20;99.90
35692;DHT22;26978;44.830;-0.674;2022-09-02T09:47:01;21.00;99.90
35692;DHT22;26978;44.830;-0.674;2022-09-02T09:49:26;20.70;99.90
35692;DHT22;26978;44.830;-0.674;2022-09-02T09:51:53;20.70;99.90
35692;DHT22;26978;44.830;-0.674;2022-09-02T09:54:18;20.70;99.90
35692;DHT22;26978;44.830;-0.674;2022-09-02T09:56:44;20.70;99.90
35692;DHT22;26978;44.830;-0.674;2022-09-02T10:01:53;20.40;99.90
35692;DHT22;26978;44.830;-0.674;2022-09-02T10:04:27;20.50;99.90
35692;DHT22;26978;44.830;-0.674;2022-09-02T10:06:54;20.50;99.90
35692;DHT22;26978;44.830;-0.674;2022-09-02T10:11:55;20.80;99.90
35692;DHT22;26978;44.830;-0.674;2022-09-02T10:14:21;21.10;99.90
35692;DHT22;26978;44.830;-0.674;2022-09-02T10:21:57;21.80;99.90
35692;DHT22;26978;44.830;-0.674;2022-09-02T10:27:04;21.80;99.90
35692;DHT22;26978;44.830;-0.674;2022-09-02T10:32:20;22.00;99.90
35692;DHT22;26978;44.830;-0.674;2022-09-02T10:45:58;22.40;99.90
35692;DHT22;26978;44.830;-0.674;2022-09-02T10:51:21;22.70;99.90
35692;DHT22;26978;44.830;-0.674;2022-09-02T10:54:01;23.00;99.90
35692;DHT22;26978;44.830;-0.674;2022-09-02T10:56:33;22.80;99.90
35692;DHT22;26978;44.830;-0.674;2022-09-02T10:59:06;23.00;99.90
35692;DHT22;26978;44.830;-0.674;2022-09-02T11:01:34;23.10;99.90
35692;DHT22;26978;44.830;-0.674;2022-09-02T11:06:40;22.60;99.90
35692;DHT22;26978;44.830;-0.674;2022-09-02T11:12:06;23.00;99.90
35692;DHT22;26978;44.830;-0.674;2022-09-02T11:14:34;23.20;99.90
35692;DHT22;26978;44.830;-0.674;2022-09-02T11:19:37;23.30;99.90
35692;DHT22;26978;44.830;-0.674;2022-09-02T11:30:01;24.60;99.90
35692;DHT22;26978;44.830;-0.674;2022-09-02T11:32:34;24.00;99.90
35692;DHT22;26978;44.830;-0.674;2022-09-02T11:35:03;23.10;99.90
35692;DHT22;26978;44.830;-0.674;2022-09-02T11:42:38;21.70;99.90
35692;DHT22;26978;44.830;-0.674;2022-09-02T11:45:13;21.70;99.90
35692;DHT22;26978;44.830;-0.674;2022-09-02T11:55:15;23.10;99.90
35692;DHT22;26978;44.830;-0.674;2022-09-02T11:57:41;23.60;99.90
35692;DHT22;26978;44.830;-0.674;2022-09-02T12:00:08;24.00;99.90
35692;DHT22;26978;44.830;-0.674;2022-09-02T12:02:36;24.30;99.90
35692;DHT22;26978;44.830;-0.674;2022-09-02T12:07:47;24.60;99.90
35692;DHT22;26978;44.830;-0.674;2022-09-02T12:15:25;24.60;99.90
35692;DHT22;26978;44.830;-0.674;2022-09-02T12:23:00;23.70;99.90
35692;DHT22;26978;44.830;-0.674;2022-09-02T12:33:30;24.10;99.90
35692;DHT22;26978;44.830;-0.674;2022-09-02T12:35:56;24.10;99.90
35692;DHT22;26978;44.830;-0.674;2022-09-02T12:38:32;24.50;99.90
35692;DHT22;26978;44.830;-0.674;2022-09-02T12:45:56;25.80;99.90
35692;DHT22;26978;44.830;-0.674;2022-09-02T12:48:26;26.00;99.80
35692;DHT22;26978;44.830;-0.674;2022-09-02T12:55:56;25.00;99.90
35692;DHT22;26978;44.830;-0.674;2022-09-02T12:58:22;24.80;99.90
35692;DHT22;26978;44.830;-0.674;2022-09-02T13:00:56;24.60;99.90
35692;DHT22;26978;44.830;-0.674;2022-09-02T13:06:16;25.00;99.90
35692;DHT22;26978;44.830;-0.674;2022-09-02T13:14:19;25.30;99.70
35692;DHT22;26978;44.830;-0.674;2022-09-02T13:32:38;26.80;95.30
35692;DHT22;26978;44.830;-0.674;2022-09-02T13:35:18;26.00;95.30
35692;DHT22;26978;44.830;-0.674;2022-09-02T13:37:48;26.20;96.70
35692;DHT22;26978;44.830;-0.674;2022-09-02T13:40:18;27.30;94.00
35692;DHT22;26978;44.830;-0.674;2022-09-02T13:42:48;26.30;94.80
35692;DHT22;26978;44.830;-0.674;2022-09-02T13:45:15;26.40;95.10
35692;DHT22;26978;44.830;-0.674;2022-09-02T13:47:42;26.20;96.50
35692;DHT22;26978;44.830;-0.674;2022-09-02T13:50:08;26.30;95.20
35692;DHT22;26978;44.830;-0.674;2022-09-02T13:52:35;26.20;94.50
35692;DHT22;26978;44.830;-0.674;2022-09-02T13:55:02;26.50;94.60
35692;DHT22;26978;44.830;-0.674;2022-09-02T13:57:28;27.20;92.90
35692;DHT22;26978;44.830;-0.674;2022-09-02T13:59:55;27.50;91.40
35692;DHT22;26978;44.830;-0.674;2022-09-02T14:02:25;27.20;91.40
35692;DHT22;26978;44.830;-0.674;2022-09-02T14:04:58;27.50;92.00
35692;DHT22;26978;44.830;-0.674;2022-09-02T14:07:36;28.50;91.50
35692;DHT22;26978;44.830;-0.674;2022-09-02T14:10:03;27.30;92.00
35692;DHT22;26978;44.830;-0.674;2022-09-02T14:12:30;26.60;93.80
35692;DHT22;26978;44.830;-0.674;2022-09-02T14:14:56;26.30;95.90
35692;DHT22;26978;44.830;-0.674;2022-09-02T14:17:23;26.80;95.70
35692;DHT22;26978;44.830;-0.674;2022-09-02T14:19:50;26.40;95.80
35692;DHT22;26978;44.830;-0.674;2022-09-02T14:22:26;26.30;94.80
35692;DHT22;26978;44.830;-0.674;2022-09-02T14:24:51;26.30;95.40
35692;DHT22;26978;44.830;-0.674;2022-09-02T14:27:18;26.00;95.60
35692;DHT22;26978;44.830;-0.674;2022-09-02T14:29:44;25.30;97.20
35692;DHT22;26978;44.830;-0.674;2022-09-02T14:32:14;25.40;98.30
35692;DHT22;26978;44.830;-0.674;2022-09-02T14:34:45;25.60;97.10
35692;DHT22;26978;44.830;-0.674;2022-09-02T14:42:17;26.10;96.90
35692;DHT22;26978;44.830;-0.674;2022-09-02T14:44:44;27.00;94.50
35692;DHT22;26978;44.830;-0.674;2022-09-02T14:47:13;28.60;93.00
35692;DHT22;26978;44.830;-0.674;2022-09-02T14:49:49;27.50;92.00
35692;DHT22;26978;44.830;-0.674;2022-09-02T14:54:42;25.90;95.70
35692;DHT22;26978;44.830;-0.674;2022-09-02T14:57:18;25.60;96.30
35692;DHT22;26978;44.830;-0.674;2022-09-02T14:59:45;27.30;94.70
35692;DHT22;26978;44.830;-0.674;2022-09-02T15:02:23;29.00;90.50
35692;DHT22;26978;44.830;-0.674;2022-09-02T15:04:56;28.60;87.30
35692;DHT22;26978;44.830;-0.674;2022-09-02T15:07:22;28.00;87.90
35692;DHT22;26978;44.830;-0.674;2022-09-02T15:09:48;27.00;90.90
35692;DHT22;26978;44.830;-0.674;2022-09-02T15:12:18;26.20;92.10
35692;DHT22;26978;44.830;-0.674;2022-09-02T15:14:44;26.00;93.00
35692;DHT22;26978;44.830;-0.674;2022-09-02T15:17:10;26.00;93.80
35692;DHT22;26978;44.830;-0.674;2022-09-02T15:19:37;26.00;93.70
35692;DHT22;26978;44.830;-0.674;2022-09-02T15:22:03;25.80;93.20
35692;DHT22;26978;44.830;-0.674;2022-09-02T15:24:29;26.00;94.10
35692;DHT22;26978;44.830;-0.674;2022-09-02T15:26:54;25.90;95.30
35692;DHT22;26978;44.830;-0.674;2022-09-02T15:29:20;25.60;96.70
35692;DHT22;26978;44.830;-0.674;2022-09-02T15:31:45;25.20;97.70
35692;DHT22;26978;44.830;-0.674;2022-09-02T15:34:11;25.10;97.80
35692;DHT22;26978;44.830;-0.674;2022-09-02T15:36:36;25.00;98.10
35692;DHT22;26978;44.830;-0.674;2022-09-02T15:39:02;25.00;98.10
35692;DHT22;26978;44.830;-0.674;2022-09-02T15:41:28;25.50;98.30
35692;DHT22;26978;44.830;-0.674;2022-09-02T15:43:55;25.80;95.80
35692;DHT22;26978;44.830;-0.674;2022-09-02T15:46:23;27.40;95.40
35692;DHT22;26978;44.830;-0.674;2022-09-02T15:48:49;28.30;90.90
35692;DHT22;26978;44.830;-0.674;2022-09-02T15:51:15;28.60;91.00
35692;DHT22;26978;44.830;-0.674;2022-09-02T15:53:41;29.00;89.60
35692;DHT22;26978;44.830;-0.674;2022-09-02T15:56:14;29.10;89.60
35692;DHT22;26978;44.830;-0.674;2022-09-02T15:58:39;29.70;84.90
35692;DHT22;26978;44.830;-0.674;2022-09-02T16:01:05;28.50;88.00
35692;DHT22;26978;44.830;-0.674;2022-09-02T16:03:31;27.50;91.70
35692;DHT22;26978;44.830;-0.674;2022-09-02T16:06:02;29.00;88.30
35692;DHT22;26978;44.830;-0.674;2022-09-02T16:08:28;29.00;86.70
35692;DHT22;26978;44.830;-0.674;2022-09-02T16:10:54;29.30;85.40
35692;DHT22;26978;44.830;-0.674;2022-09-02T16:13:19;29.80;82.00
35692;DHT22;26978;44.830;-0.674;2022-09-02T16:15:46;29.30;80.60
35692;DHT22;26978;44.830;-0.674;2022-09-02T16:18:11;28.60;81.20
35692;DHT22;26978;44.830;-0.674;2022-09-02T16:20:37;28.10;83.70
35692;DHT22;26978;44.830;-0.674;2022-09-02T16:23:03;28.30;86.20
35692;DHT22;26978;44.830;-0.674;2022-09-02T16:25:28;28.10;86.10
35692;DHT22;26978;44.830;-0.674;2022-09-02T16:27:54;28.60;85.30
35692;DHT22;26978;44.830;-0.674;2022-09-02T16:30:21;28.60;85.60
35692;DHT22;26978;44.830;-0.674;2022-09-02T16:32:46;28.50;86.90
35692;DHT22;26978;44.830;-0.674;2022-09-02T16:35:14;28.20;88.70
35692;DHT22;26978;44.830;-0.674;2022-09-02T16:37:40;28.50;87.70
35692;DHT22;26978;44.830;-0.674;2022-09-02T16:40:06;28.10;88.10
35692;DHT22;26978;44.830;-0.674;2022-09-02T16:42:32;28.00;90.10
35692;DHT22;26978;44.830;-0.674;2022-09-02T16:44:57;27.40;91.10
35692;DHT22;26978;44.830;-0.674;2022-09-02T16:47:23;27.90;90.80
35692;DHT22;26978;44.830;-0.674;2022-09-02T16:49:49;28.40;89.80
35692;DHT22;26978;44.830;-0.674;2022-09-02T16:52:14;27.90;90.10
35692;DHT22;26978;44.830;-0.674;2022-09-02T16:54:40;27.70;90.40
35692;DHT22;26978;44.830;-0.674;2022-09-02T16:57:05;27.80;90.50
35692;DHT22;26978;44.830;-0.674;2022-09-02T16:59:31;27.40;90.60
35692;DHT22;26978;44.830;-0.674;2022-09-02T17:01:56;26.60;91.80
35692;DHT22;26978;44.830;-0.674;2022-09-02T17:04:22;26.50;91.90
35692;DHT22;26978;44.830;-0.674;2022-09-02T17:06:48;26.40;93.20
35692;DHT22;26978;44.830;-0.674;2022-09-02T17:09:13;26.30;93.00
35692;DHT22;26978;44.830;-0.674;2022-09-02T17:11:40;25.90;93.40
35692;DHT22;26978;44.830;-0.674;2022-09-02T17:14:08;25.30;93.60
35692;DHT22;26978;44.830;-0.674;2022-09-02T17:16:36;24.90;94.10
35692;DHT22;26978;44.830;-0.674;2022-09-02T17:19:02;24.80;94.60
35692;DHT22;26978;44.830;-0.674;2022-09-02T17:21:32;24.70;94.90
35692;DHT22;26978;44.830;-0.674;2022-09-02T17:23:58;24.50;95.80
35692;DHT22;26978;44.830;-0.674;2022-09-02T17:26:25;24.50;96.20
35692;DHT22;26978;44.830;-0.674;2022-09-02T17:28:52;24.40;96.30